Weather reports worldwide

Advertisment
Hellin, Spain (8355): temperature & dewpoint: 06.12.2019 17:00:00 - 12.12.2019 17:00:00 (CET)Hellin, Spain (8355): wind speed & gusts: 06.12.2019 17:00:00 - 12.12.2019 17:00:00 (CET)Hellin, Spain (8355): wind direction: 06.12.2019 17:00:00 - 12.12.2019 17:00:00 (CET)Hellin, Spain (8355): reduced air pressure: 06.12.2019 17:00:00 - 12.12.2019 17:00:00 (CET)Hellin, Spain (8355): precipitation: 06.12.2019 17:00:00 - 12.12.2019 17:00:00 (CET)
Date & Time tt [°C] td [°C] ff [km/h] ff [kn] fx [km/h] fx [kn] dd ppp [hPa] rr [mm]
12.12.2019 17:00:00 9,4 2,7 31 17 57 31 S 1023,0 0,0
12.12.2019 16:00:00 10,3 3,0 29 16 54 29 SSW 1023,2 0,0
12.12.2019 15:00:00 9,6 2,9 28 15 46 25 SW 1024,1 0,0
12.12.2019 14:00:00 9,5 2,3 23 13 45 25 SW 1025,5 0,0
12.12.2019 13:00:00 10,2 2,3 19 10 41 22 SW 1026,5 -
12.12.2019 12:00:00 10,0 2,3 21 11 36 19 SSW 1027,7 0,0
12.12.2019 11:00:00 8,9 2,5 16 8 35 19 SSW 1028,2 0,0
12.12.2019 10:00:00 7,2 2,9 1 1 23 12 NNE 1028,4 0,0
12.12.2019 09:00:00 5,7 1,9 15 8 23 12 WSW 1029,0 0,0
12.12.2019 08:00:00 5,1 1,1 13 7 17 9 SW 1029,0 0,0
12.12.2019 07:00:00 5,6 1,1 9 5 14 8 SW 1029,0 -
12.12.2019 06:00:00 5,7 1,1 8 4 21 11 WSW 1029,2 0,0
12.12.2019 05:00:00 5,6 0,6 12 6 22 12 WSW 1029,7 0,0
12.12.2019 04:00:00 6,3 0,6 13 7 24 13 WSW 1030,1 0,0
12.12.2019 03:00:00 6,5 0,9 14 8 24 13 WSW 1030,1 0,0
12.12.2019 02:00:00 6,1 1,1 12 7 19 11 SW 1030,8 0,0
12.12.2019 01:00:00 6,4 1,5 13 7 24 13 SW 1031,4 -
12.12.2019 00:00:00 6,6 1,3 10 6 23 12 SW 1032,0 0,0
11.12.2019 23:00:00 7,5 1,7 13 7 37 20 SW 1031,4 0,0
11.12.2019 22:00:00 8,1 2,3 20 11 40 21 WSW 1030,6 0,0
11.12.2019 21:00:00 8,1 3,0 17 9 37 20 SW 1030,1 0,0
11.12.2019 20:00:00 8,3 3,2 23 12 43 23 SW 1029,5 0,0
11.12.2019 19:00:00 8,2 2,7 18 10 49 27 SW 1029,3 -
11.12.2019 18:00:00 9,5 3,4 29 16 52 28 SW 1027,7 0,0
11.12.2019 17:00:00 11,1 3,2 26 14 47 26 SW 1026,5 0,0
11.12.2019 16:00:00 12,5 3,8 25 13 49 27 SW 1025,6 0,0
11.12.2019 15:00:00 13,8 3,0 34 18 55 30 SSW 1025,2 0,0
11.12.2019 14:00:00 14,3 2,5 30 16 51 28 SSW 1024,4 0,0
11.12.2019 13:00:00 15,8 1,5 18 10 36 19 S 1024,6 -
11.12.2019 12:00:00 14,5 1,1 10 6 18 10 SSE 1026,1 0,0
11.12.2019 11:00:00 11,1 0,2 9 5 18 10 SW 1027,5 0,0
11.12.2019 10:00:00 9,8 0,2 5 3 15 8 WSW 1027,9 0,0
11.12.2019 09:00:00 6,6 -2,0 4 2 19 10 WSW 1028,9 0,0
11.12.2019 08:00:00 6,7 -3,0 13 7 20 11 W 1028,8 0,0
11.12.2019 07:00:00 6,5 -3,9 6 3 15 8 W 1028,8 -
11.12.2019 06:00:00 7,2 -3,3 8 4 19 10 WSW 1028,6 0,0
11.12.2019 05:00:00 6,7 -3,3 9 5 25 14 W 1029,5 0,0
11.12.2019 04:00:00 7,8 -2,5 10 5 24 13 WSW 1029,7 0,0
11.12.2019 03:00:00 6,9 -3,0 14 8 28 15 WSW 1030,3 0,0
11.12.2019 02:00:00 6,8 -3,3 11 6 19 10 W 1030,5 0,0
11.12.2019 01:00:00 7,7 -3,0 9 5 14 8 W 1031,0 -
11.12.2019 00:00:00 7,8 -2,7 3 2 14 7 WNW 1031,3 0,0
10.12.2019 23:00:00 7,2 -2,7 5 3 14 8 ESE 1031,4 0,0
10.12.2019 22:00:00 8,5 -2,0 8 4 20 11 W 1031,2 0,0
10.12.2019 21:00:00 8,1 1,1 6 3 14 8 W 1031,4 0,0
10.12.2019 20:00:00 8,4 0,9 4 2 13 7 WNW 1031,4 0,0
10.12.2019 19:00:00 10,9 0,0 7 4 27 14 WSW 1030,7 -
10.12.2019 18:00:00 11,8 -0,5 21 12 31 17 WSW 1030,2 0,0
10.12.2019 17:00:00 14,5 -0,7 10 6 23 12 WSW 1029,9 0,0
10.12.2019 16:00:00 15,8 -1,2 15 8 28 15 WSW 1029,3 0,0
10.12.2019 15:00:00 15,7 -1,0 18 10 30 16 SW 1029,8 0,0
10.12.2019 14:00:00 14,6 -0,3 20 11 36 20 WSW 1030,5 0,0
10.12.2019 13:00:00 13,0 -0,3 19 10 45 24 SW 1031,8 -
10.12.2019 12:00:00 11,8 0,0 27 15 47 26 WSW 1032,9 0,0
10.12.2019 11:00:00 10,9 0,0 23 13 39 21 WSW 1033,8 0,0
10.12.2019 10:00:00 9,3 0,2 16 9 34 18 WSW 1034,1 0,0
10.12.2019 09:00:00 7,3 -0,7 6 4 37 20 NNE 1034,6 0,0
10.12.2019 08:00:00 7,4 -0,5 22 12 50 27 SW 1032,9 0,0
10.12.2019 07:00:00 7,0 0,0 24 13 43 23 WSW 1033,7 -
10.12.2019 06:00:00 6,9 0,0 18 10 29 16 WSW 1034,1 0,0
10.12.2019 05:00:00 7,6 0,2 4 2 39 21 NW 1034,4 0,0
10.12.2019 04:00:00 8,5 0,4 15 8 34 19 W 1034,2 0,0
10.12.2019 03:00:00 8,5 1,5 2 1 19 11 ENE 1034,5 0,0
10.12.2019 02:00:00 8,8 2,7 3 2 34 18 NNE 1034,7 0,0
10.12.2019 01:00:00 8,9 3,9 9 5 34 19 WSW 1034,8 -
10.12.2019 00:00:00 9,1 5,0 17 9 32 18 SW 1034,7 0,0
09.12.2019 23:00:00 9,6 5,5 16 9 36 19 WSW 1034,8 0,0
09.12.2019 22:00:00 10,3 2,7 26 14 40 22 WSW 1034,2 0,0
09.12.2019 21:00:00 10,5 0,4 11 6 42 23 W 1034,2 0,0
09.12.2019 20:00:00 11,5 -0,3 18 10 41 22 WSW 1033,5 0,0
09.12.2019 19:00:00 12,1 1,1 22 12 42 23 SW 1032,3 -
09.12.2019 18:00:00 12,5 1,3 13 7 29 16 WSW 1031,8 0,0
09.12.2019 17:00:00 15,4 -1,2 16 9 37 20 WSW 1030,6 0,0
09.12.2019 16:00:00 16,6 -1,0 13 7 31 17 WSW 1030,3 0,0
09.12.2019 15:00:00 16,8 -1,4 18 10 44 24 SW 1029,9 0,0
09.12.2019 14:00:00 15,3 2,5 22 12 38 20 WSW 1030,8 0,0
09.12.2019 13:00:00 14,3 4,3 15 8 29 16 WSW 1032,0 -
09.12.2019 12:00:00 12,6 6,4 14 7 30 16 W 1033,5 0,0
09.12.2019 11:00:00 11,2 7,0 18 10 38 20 W 1033,9 0,0
09.12.2019 10:00:00 10,1 7,6 19 10 37 20 WSW 1033,6 0,0
09.12.2019 09:00:00 9,3 6,8 6 3 26 14 W 1033,0 0,0
09.12.2019 08:00:00 9,5 7,1 3 1 18 10 E 1032,8 0,0
09.12.2019 07:00:00 9,9 7,3 12 6 29 16 WSW 1032,5 -
09.12.2019 06:00:00 10,5 7,8 21 12 49 26 WSW 1031,7 0,0
09.12.2019 05:00:00 10,7 8,1 22 12 37 20 W 1031,2 0,0
09.12.2019 04:00:00 11,0 8,4 13 7 22 12 WSW 1030,8 0,0
09.12.2019 03:00:00 10,6 8,0 4 2 17 9 SW 1030,6 0,0
09.12.2019 02:00:00 10,2 7,6 10 5 25 13 WSW 1030,9 0,0
09.12.2019 01:00:00 10,5 7,7 11 6 21 11 W 1031,5 -
09.12.2019 00:00:00 10,5 7,7 13 7 29 16 WSW 1031,0 0,0
08.12.2019 23:00:00 10,4 7,7 16 9 24 13 SW 1030,7 0,0
08.12.2019 22:00:00 10,5 8,1 12 6 23 13 WSW 1030,4 0,0
08.12.2019 21:00:00 10,1 7,8 10 6 22 12 WSW 1030,3 0,0
08.12.2019 20:00:00 10,2 8,0 11 6 24 13 WSW 1030,2 0,0
08.12.2019 19:00:00 11,0 7,8 15 8 25 14 WSW 1029,6 -
08.12.2019 18:00:00 13,1 3,4 14 8 24 13 SW 1028,5 0,0
08.12.2019 17:00:00 14,8 3,2 16 8 24 13 WSW 1027,7 0,0
08.12.2019 16:00:00 15,7 3,4 15 8 26 14 WSW 1027,1 0,0
08.12.2019 15:00:00 16,0 3,0 13 7 34 18 WSW 1027,4 0,0
08.12.2019 14:00:00 15,1 5,3 11 6 24 13 WSW 1028,1 0,0
08.12.2019 13:00:00 13,1 5,5 14 7 29 16 WSW 1029,5 -
08.12.2019 12:00:00 11,7 4,6 5 3 23 12 WNW 1031,0 0,0
08.12.2019 11:00:00 9,5 4,5 15 8 27 15 WSW 1031,8 0,0
08.12.2019 10:00:00 8,1 4,8 18 10 29 16 WSW 1031,8 0,0
08.12.2019 09:00:00 6,5 5,0 14 7 19 10 WSW 1031,7 0,0
08.12.2019 08:00:00 6,5 5,8 10 5 18 10 WSW 1031,3 0,0
08.12.2019 07:00:00 6,5 5,8 11 6 16 9 WSW 1031,1 -
08.12.2019 06:00:00 5,4 4,6 9 5 12 6 S 1031,0 0,0
08.12.2019 05:00:00 5,3 4,3 4 2 9 5 W 1031,6 0,0
08.12.2019 04:00:00 6,1 5,0 7 4 19 11 W 1031,4 0,0
08.12.2019 03:00:00 7,4 5,9 10 6 20 11 W 1031,4 0,0
08.12.2019 02:00:00 6,6 4,6 6 3 15 8 WNW 1031,5 0,0
08.12.2019 01:00:00 7,0 4,8 8 4 18 10 W 1031,9 -
08.12.2019 00:00:00 7,7 5,8 11 6 16 9 W 1031,9 0,0
07.12.2019 23:00:00 7,3 5,0 4 2 13 7 WNW 1031,9 0,0
07.12.2019 22:00:00 8,7 5,9 6 3 19 10 W 1030,8 0,0
07.12.2019 21:00:00 9,0 6,2 4 2 16 9 W 1030,3 0,0
07.12.2019 20:00:00 9,7 6,5 12 7 19 11 WSW 1030,1 0,0
07.12.2019 19:00:00 10,3 5,5 7 4 11 6 WSW 1029,4 -
07.12.2019 18:00:00 12,1 5,0 4 2 6 4 S 1028,2 0,0
07.12.2019 17:00:00 14,7 5,1 5 3 9 5 E 1027,2 0,0
07.12.2019 16:00:00 15,8 5,5 4 2 9 5 ESE 1026,5 0,0
07.12.2019 15:00:00 15,1 6,7 2 1 8 4 E 1026,7 0,0
07.12.2019 14:00:00 15,1 7,4 3 1 8 4 E 1027,2 0,0
07.12.2019 13:00:00 13,4 7,4 1 0 10 5 WSW 1028,2 -
07.12.2019 12:00:00 11,5 7,6 5 3 10 6 WNW 1028,9 0,0
07.12.2019 11:00:00 9,6 8,5 6 4 11 6 WNW 1030,1 0,0
07.12.2019 10:00:00 7,1 7,0 7 4 13 7 W 1030,6 0,0
07.12.2019 09:00:00 5,2 5,1 5 3 13 7 W 1030,7 0,0
07.12.2019 08:00:00 5,1 5,0 7 4 18 10 W 1030,3 0,0
07.12.2019 07:00:00 5,3 5,1 10 6 18 10 W 1030,2 -
07.12.2019 06:00:00 6,1 5,8 12 6 18 10 WSW 1029,7 0,0
07.12.2019 05:00:00 5,8 5,5 6 3 13 7 W 1029,7 0,0
07.12.2019 04:00:00 6,1 5,8 8 4 15 8 WNW 1030,4 0,0
07.12.2019 03:00:00 6,7 6,2 8 5 13 7 W 1030,1 0,0
07.12.2019 02:00:00 7,1 6,5 5 3 14 8 W 1029,7 0,0
07.12.2019 01:00:00 7,1 6,4 5 3 9 5 W 1029,7 -
07.12.2019 00:00:00 7,8 6,8 3 1 7 4 WNW 1030,0 0,0
06.12.2019 23:00:00 8,1 7,0 5 3 10 5 WNW 1030,1 0,0
06.12.2019 22:00:00 8,6 7,4 5 3 12 7 NNW 1029,7 0,0
06.12.2019 21:00:00 8,9 7,3 6 3 9 5 WNW 1029,3 0,0
06.12.2019 20:00:00 9,3 7,7 5 3 13 7 NW 1029,1 0,0
06.12.2019 19:00:00 10,0 7,7 9 5 14 7 NW 1028,3 -
06.12.2019 18:00:00 10,9 7,4 4 2 6 4 NW 1027,4 0,0
06.12.2019 17:00:00 11,7 7,0 2 1 5 3 S 1026,9 0,0

tt = temperature
td = dewpoint
ff = wind speed
fx = gusts
dd = wind direction
ppp = reduced air pressure
rr = precipitation

Next stations